Time;durP1;ratioP1;P1;durP2;ratioP2;P2;SDS_P1;SDS_P2;PMS_P1;PMS_P2;Temp;Humidity;BMP_temperature;BMP_pressure;BME280_temperature;BME280_humidity;BME280_pressure;Samples;Min_cycle;Max_cycle;Signal;HPM_P1;HPM_P2
2023/10/30 00:00:36;;;;;;;6.13;2.63;;;;;;;;;;5075823;28;20477;-81
2023/10/30 00:03:02;;;;;;;14.67;2.37;;;;;;;;;;5075969;28;20828;-82
2023/10/30 00:05:28;;;;;;;3.20;1.80;;;;;;;;;;5075757;28;20831;-81
2023/10/30 00:07:55;;;;;;;4.73;1.90;;;;;;;;;;5075614;28;20448;-81
2023/10/30 00:10:21;;;;;;;7.70;1.63;;;;;;;;;;5075347;28;21019;-81
2023/10/30 00:12:49;;;;;;;4.00;1.90;;;;;;;;;;5074429;28;20467;-82
2023/10/30 00:15:15;;;;;;;8.10;2.00;;;;;;;;;;5075467;28;20467;-81
2023/10/30 00:17:42;;;;;;;5.13;1.80;;;;;;;;;;5075263;28;20541;-81
2023/10/30 00:20:08;;;;;;;6.43;1.93;;;;;;;;;;5075370;28;20443;-82
2023/10/30 00:22:34;;;;;;;6.30;1.53;;;;;;;;;;5074816;28;20490;-82
2023/10/30 00:25:02;;;;;;;7.23;1.80;;;;;;;;;;5075094;28;20999;-81
2023/10/30 00:27:29;;;;;;;6.20;1.63;;;;;;;;;;5074622;28;20467;-82
2023/10/30 00:29:56;;;;;;;2.57;2.37;;;;;;;;;;5075293;28;20443;-82
2023/10/30 00:32:23;;;;;;;6.80;1.80;;;;;;;;;;5075079;28;20474;-82
2023/10/30 00:34:49;;;;;;;2.50;2.00;;;;;;;;;;5075477;28;20463;-82
2023/10/30 00:37:16;;;;;;;1.63;1.53;;;;;;;;;;5074739;28;20471;-82
2023/10/30 00:39:43;;;;;;;6.70;1.60;;;;;;;;;;5074990;28;20461;-82
2023/10/30 00:42:10;;;;;;;4.67;1.90;;;;;;;;;;5074599;28;20532;-82
2023/10/30 00:44:37;;;;;;;2.10;1.30;;;;;;;;;;5075271;28;20459;-82
2023/10/30 00:47:06;;;;;;;2.80;1.57;;;;;;;;;;5074632;28;20505;-82
2023/10/30 00:49:32;;;;;;;3.57;1.93;;;;;;;;;;5075100;28;20458;-81
2023/10/30 00:51:58;;;;;;;5.17;2.00;;;;;;;;;;5072762;28;20528;-82
2023/10/30 00:54:25;;;;;;;4.83;1.47;;;;;;;;;;5074950;28;20447;-81
2023/10/30 00:56:51;;;;;;;3.60;1.70;;;;;;;;;;5074324;28;20481;-82
2023/10/30 00:59:18;;;;;;;2.80;1.77;;;;;;;;;;5074995;28;20439;-82
2023/10/30 01:01:44;;;;;;;3.00;1.53;;;;;;;;;;5072888;28;20496;-82
2023/10/30 01:04:12;;;;;;;6.10;1.30;;;;;;;;;;5075199;28;20458;-82
2023/10/30 01:06:38;;;;;;;4.30;1.77;;;;;;;;;;5074510;28;20458;-81
2023/10/30 01:09:05;;;;;;;3.30;1.93;;;;;;;;;;5075008;28;20954;-82
2023/10/30 01:11:31;;;;;;;4.77;1.43;;;;;;;;;;5073882;28;20855;-82
2023/10/30 01:13:57;;;;;;;3.50;1.43;;;;;;;;;;5074319;28;20455;-82
2023/10/30 01:16:24;;;;;;;6.67;1.80;;;;;;;;;;5073989;28;20435;-82
2023/10/30 01:18:50;;;;;;;3.23;1.53;;;;;;;;;;5073753;28;20413;-82
2023/10/30 01:21:20;;;;;;;6.33;1.40;;;;;;;;;;5074082;28;20442;-81
2023/10/30 01:23:46;;;;;;;2.43;1.47;;;;;;;;;;5074677;28;20463;-82
2023/10/30 01:26:12;;;;;;;8.07;1.63;;;;;;;;;;5074286;28;20935;-82
2023/10/30 01:28:39;;;;;;;8.23;1.97;;;;;;;;;;5074520;28;20443;-82
2023/10/30 01:31:05;;;;;;;3.80;1.40;;;;;;;;;;5073982;28;21022;-82
2023/10/30 01:33:32;;;;;;;6.33;1.73;;;;;;;;;;5074023;28;20996;-82
2023/10/30 01:35:58;;;;;;;5.40;1.90;;;;;;;;;;5074284;28;20941;-82
2023/10/30 01:38:26;;;;;;;5.20;2.07;;;;;;;;;;5073974;28;20523;-82
2023/10/30 01:40:52;;;;;;;5.70;2.43;;;;;;;;;;5074556;28;20813;-82
2023/10/30 01:43:28;;;;;;;4.53;2.03;;;;;;;;;;5072687;28;20575;-81
2023/10/30 01:45:54;;;;;;;7.40;2.10;;;;;;;;;;5074201;28;20445;-82
2023/10/30 01:48:21;;;;;;;5.20;1.77;;;;;;;;;;5073156;28;20467;-81
2023/10/30 01:50:48;;;;;;;5.30;2.30;;;;;;;;;;5076012;28;20453;-81
2023/10/30 01:53:15;;;;;;;3.63;1.53;;;;;;;;;;5076829;28;20992;-82
2023/10/30 01:55:43;;;;;;;3.83;1.53;;;;;;;;;;5078349;28;20442;-81
2023/10/30 01:58:09;;;;;;;4.90;2.07;;;;;;;;;;5076351;28;20473;-82
2023/10/30 02:00:35;;;;;;;5.80;1.77;;;;;;;;;;5078434;28;20438;-81
2023/10/30 02:03:03;;;;;;;8.00;1.93;;;;;;;;;;5078057;28;20837;-82
2023/10/30 02:05:29;;;;;;;4.43;1.53;;;;;;;;;;5077962;28;20459;-82
2023/10/30 02:07:55;;;;;;;9.67;2.30;;;;;;;;;;5077945;28;21031;-81
2023/10/30 02:10:22;;;;;;;13.33;2.73;;;;;;;;;;5077949;28;20481;-81
2023/10/30 02:12:50;;;;;;;10.93;2.57;;;;;;;;;;5077718;28;20483;-81
2023/10/30 02:15:17;;;;;;;8.93;2.50;;;;;;;;;;5078142;28;20463;-83
2023/10/30 02:17:43;;;;;;;6.13;2.50;;;;;;;;;;5078150;28;20504;-82
2023/10/30 02:20:11;;;;;;;7.03;2.13;;;;;;;;;;5077943;28;20488;-82
2023/10/30 02:22:37;;;;;;;21.67;3.00;;;;;;;;;;5077304;28;20799;-82
2023/10/30 02:25:07;;;;;;;5.77;2.03;;;;;;;;;;5078004;28;20455;-84
2023/10/30 02:27:35;;;;;;;4.20;1.80;;;;;;;;;;5077604;28;20446;-82
2023/10/30 02:30:01;;;;;;;4.40;1.73;;;;;;;;;;5077504;28;20442;-82
2023/10/30 02:32:27;;;;;;;6.80;1.90;;;;;;;;;;5076995;28;20471;-82
2023/10/30 02:34:54;;;;;;;7.03;1.57;;;;;;;;;;5077402;28;20455;-83
2023/10/30 02:37:20;;;;;;;3.13;1.57;;;;;;;;;;5076462;28;20668;-83
2023/10/30 02:39:46;;;;;;;11.33;2.00;;;;;;;;;;5077318;28;20921;-82
2023/10/30 02:42:13;;;;;;;7.53;3.40;;;;;;;;;;5075975;28;20475;-82
2023/10/30 02:44:41;;;;;;;6.27;2.40;;;;;;;;;;5077235;28;20462;-82
2023/10/30 02:47:07;;;;;;;6.10;1.97;;;;;;;;;;5077146;28;20474;-82
2023/10/30 02:49:35;;;;;;;5.63;1.90;;;;;;;;;;5076773;28;20966;-82
2023/10/30 02:52:02;;;;;;;7.73;1.83;;;;;;;;;;5076618;28;20532;-82
2023/10/30 02:54:28;;;;;;;6.30;2.37;;;;;;;;;;5076139;28;20463;-82
2023/10/30 02:56:54;;;;;;;13.20;2.80;;;;;;;;;;5077211;28;20478;-82
2023/10/30 02:59:20;;;;;;;7.73;2.20;;;;;;;;;;5077191;28;20445;-82
2023/10/30 03:01:48;;;;;;;5.87;2.17;;;;;;;;;;5076229;28;20467;-82
2023/10/30 03:04:16;;;;;;;7.77;2.73;;;;;;;;;;5076877;28;20433;-82
2023/10/30 03:06:43;;;;;;;9.37;1.97;;;;;;;;;;5076791;28;20469;-82
2023/10/30 03:09:09;;;;;;;4.80;2.07;;;;;;;;;;5075807;28;20439;-82
2023/10/30 03:11:36;;;;;;;8.63;1.90;;;;;;;;;;5076626;28;20801;-82
2023/10/30 03:14:02;;;;;;;11.40;2.77;;;;;;;;;;5076362;28;20905;-82
2023/10/30 03:16:29;;;;;;;3.87;1.90;;;;;;;;;;5076267;28;20439;-82
2023/10/30 03:18:56;;;;;;;4.00;2.00;;;;;;;;;;5075242;28;20446;-82
2023/10/30 03:21:23;;;;;;;7.27;2.30;;;;;;;;;;5076254;28;20431;-82
2023/10/30 03:23:49;;;;;;;8.30;2.60;;;;;;;;;;5076896;28;20503;-80
2023/10/30 03:26:16;;;;;;;9.13;2.80;;;;;;;;;;5076268;28;20443;-82
2023/10/30 03:28:43;;;;;;;9.13;1.97;;;;;;;;;;5076357;28;20796;-81
2023/10/30 03:31:10;;;;;;;12.83;2.43;;;;;;;;;;5076430;28;20450;-81
2023/10/30 03:33:36;;;;;;;5.80;2.00;;;;;;;;;;5076216;28;21000;-82
2023/10/30 03:36:05;;;;;;;7.50;2.00;;;;;;;;;;5075294;28;20450;-82
2023/10/30 03:38:31;;;;;;;7.63;2.43;;;;;;;;;;5076175;28;20463;-82
2023/10/30 03:40:57;;;;;;;4.60;2.00;;;;;;;;;;5076607;28;20433;-82
2023/10/30 03:43:24;;;;;;;13.10;2.77;;;;;;;;;;5075729;28;20445;-82
2023/10/30 03:45:50;;;;;;;8.13;2.33;;;;;;;;;;5076305;28;20915;-82
2023/10/30 03:48:16;;;;;;;12.03;2.57;;;;;;;;;;5075540;28;20470;-83
2023/10/30 03:50:43;;;;;;;6.73;2.40;;;;;;;;;;5076556;28;20424;-82
2023/10/30 03:53:10;;;;;;;8.67;3.37;;;;;;;;;;5076199;28;20470;-82
2023/10/30 03:55:37;;;;;;;6.77;2.53;;;;;;;;;;5076217;28;20987;-82
2023/10/30 03:58:04;;;;;;;9.03;2.50;;;;;;;;;;5075699;28;20482;-82
2023/10/30 04:00:31;;;;;;;11.00;2.90;;;;;;;;;;5075634;28;20941;-82
2023/10/30 04:02:57;;;;;;;14.23;3.63;;;;;;;;;;5075299;28;20475;-82
2023/10/30 04:05:23;;;;;;;8.23;2.17;;;;;;;;;;5074780;28;20512;-82
2023/10/30 04:07:50;;;;;;;7.17;2.87;;;;;;;;;;5075296;28;20470;-82
2023/10/30 04:10:18;;;;;;;7.90;1.80;;;;;;;;;;5074919;28;20440;-82
2023/10/30 04:12:44;;;;;;;12.57;2.23;;;;;;;;;;5075253;28;20481;-83
2023/10/30 04:15:11;;;;;;;11.93;3.00;;;;;;;;;;5073949;28;20455;-82
2023/10/30 04:17:37;;;;;;;9.23;2.77;;;;;;;;;;5075501;28;20906;-81
2023/10/30 04:20:04;;;;;;;8.93;2.10;;;;;;;;;;5075938;28;20442;-82
2023/10/30 04:22:30;;;;;;;9.93;2.80;;;;;;;;;;5073668;28;20859;-82
2023/10/30 04:24:56;;;;;;;11.67;2.33;;;;;;;;;;5075476;28;20827;-82
2023/10/30 04:27:24;;;;;;;16.67;3.40;;;;;;;;;;5074576;28;20471;-83
2023/10/30 04:29:51;;;;;;;13.80;2.97;;;;;;;;;;5075749;28;20421;-81
2023/10/30 04:32:17;;;;;;;9.77;3.03;;;;;;;;;;5074128;28;20445;-81
2023/10/30 04:34:43;;;;;;;14.77;2.90;;;;;;;;;;5074850;28;20837;-81
2023/10/30 04:37:09;;;;;;;13.10;3.67;;;;;;;;;;5074976;28;20471;-81
2023/10/30 04:39:36;;;;;;;14.77;2.67;;;;;;;;;;5075675;28;20447;-81
2023/10/30 04:42:02;;;;;;;10.10;2.67;;;;;;;;;;5073903;28;20459;-81
2023/10/30 04:44:30;;;;;;;8.87;2.87;;;;;;;;;;5075075;28;20429;-81
2023/10/30 04:46:56;;;;;;;12.83;2.60;;;;;;;;;;5073846;28;20788;-82
2023/10/30 04:49:23;;;;;;;9.50;2.87;;;;;;;;;;5074962;28;20442;-82
2023/10/30 04:51:49;;;;;;;8.73;2.53;;;;;;;;;;5074536;28;20471;-81
2023/10/30 04:54:15;;;;;;;10.50;2.60;;;;;;;;;;5074612;28;20455;-81
2023/10/30 04:56:42;;;;;;;4.47;1.87;;;;;;;;;;5074311;28;20536;-81
2023/10/30 04:59:08;;;;;;;10.33;2.30;;;;;;;;;;5074990;28;20416;-81
2023/10/30 05:01:36;;;;;;;11.33;2.60;;;;;;;;;;5074148;28;20964;-81
2023/10/30 05:04:03;;;;;;;16.67;2.73;;;;;;;;;;5075060;28;20455;-81
2023/10/30 05:06:30;;;;;;;8.70;2.80;;;;;;;;;;5073932;28;20496;-81
2023/10/30 05:08:56;;;;;;;9.93;2.50;;;;;;;;;;5074723;28;20447;-81
2023/10/30 05:11:22;;;;;;;12.80;2.73;;;;;;;;;;5074313;28;20450;-81
2023/10/30 05:13:48;;;;;;;18.60;3.00;;;;;;;;;;5074412;28;20858;-81
2023/10/30 05:16:15;;;;;;;6.40;2.60;;;;;;;;;;5073155;28;20435;-82
2023/10/30 05:18:43;;;;;;;5.53;2.03;;;;;;;;;;5074631;28;20439;-81
2023/10/30 05:21:08;;;;;;;10.20;2.63;;;;;;;;;;5074416;28;20420;-81
2023/10/30 05:23:35;;;;;;;11.40;2.30;;;;;;;;;;5072433;28;20445;-82
2023/10/30 05:26:01;;;;;;;10.60;2.60;;;;;;;;;;5074298;28;20201;-81
2023/10/30 05:28:28;;;;;;;11.70;2.93;;;;;;;;;;5073625;28;20470;-81
2023/10/30 05:30:55;;;;;;;8.97;2.63;;;;;;;;;;5073134;28;20443;-81
2023/10/30 05:33:21;;;;;;;5.67;2.07;;;;;;;;;;5072430;28;20474;-81
2023/10/30 05:35:52;;;;;;;9.90;2.50;;;;;;;;;;5074100;28;20819;-81
2023/10/30 05:38:19;;;;;;;8.97;3.00;;;;;;;;;;5073334;28;21050;-81
2023/10/30 05:40:46;;;;;;;14.70;3.10;;;;;;;;;;5073514;28;20443;-81
2023/10/30 05:43:13;;;;;;;16.03;2.87;;;;;;;;;;5073914;28;20864;-81
2023/10/30 05:45:39;;;;;;;10.60;2.60;;;;;;;;;;5073722;28;20435;-81
2023/10/30 05:48:06;;;;;;;5.30;2.13;;;;;;;;;;5071637;28;20870;-82
2023/10/30 05:50:32;;;;;;;11.17;2.93;;;;;;;;;;5074086;28;20426;-81
2023/10/30 05:53:00;;;;;;;5.67;2.77;;;;;;;;;;5072704;28;20494;-81
2023/10/30 05:55:27;;;;;;;12.30;2.93;;;;;;;;;;5073990;28;20523;-82
2023/10/30 05:57:53;;;;;;;11.93;2.60;;;;;;;;;;5073917;28;20495;-82
2023/10/30 06:00:19;;;;;;;11.93;2.97;;;;;;;;;;5072584;28;20439;-82
2023/10/30 06:02:46;;;;;;;11.73;2.80;;;;;;;;;;5074156;28;20463;-82
2023/10/30 06:05:14;;;;;;;9.07;2.27;;;;;;;;;;5072668;28;20433;-82
2023/10/30 06:07:41;;;;;;;7.60;2.20;;;;;;;;;;5073771;28;21030;-82
2023/10/30 06:10:10;;;;;;;7.47;2.40;;;;;;;;;;5073054;28;20500;-82
2023/10/30 06:12:37;;;;;;;11.80;3.40;;;;;;;;;;5073329;28;20478;-83
2023/10/30 06:15:04;;;;;;;10.40;2.07;;;;;;;;;;5072748;28;20429;-80
2023/10/30 06:17:30;;;;;;;8.23;2.50;;;;;;;;;;5072531;28;20475;-80
2023/10/30 06:19:56;;;;;;;8.67;2.90;;;;;;;;;;5074148;28;20438;-83
2023/10/30 06:22:23;;;;;;;18.80;2.83;;;;;;;;;;5073539;28;20471;-82
2023/10/30 06:24:50;;;;;;;9.63;2.70;;;;;;;;;;5074065;28;20459;-82
2023/10/30 06:27:19;;;;;;;11.03;2.00;;;;;;;;;;5072182;28;20554;-82
2023/10/30 06:29:45;;;;;;;13.87;2.80;;;;;;;;;;5073711;28;20927;-82
2023/10/30 06:32:12;;;;;;;7.03;3.03;;;;;;;;;;5073788;28;20445;-80
2023/10/30 06:34:39;;;;;;;6.23;2.40;;;;;;;;;;5073823;28;20465;-81
2023/10/30 06:37:05;;;;;;;8.10;2.57;;;;;;;;;;5074360;28;20492;-80
2023/10/30 06:39:32;;;;;;;10.03;3.67;;;;;;;;;;5077854;28;20454;-80
2023/10/30 06:41:58;;;;;;;13.10;3.53;;;;;;;;;;5076935;28;20475;-80
2023/10/30 06:44:26;;;;;;;9.67;2.40;;;;;;;;;;5076111;28;20512;-80
2023/10/30 06:46:53;;;;;;;6.90;2.70;;;;;;;;;;5076083;28;20466;-80
2023/10/30 06:49:20;;;;;;;8.63;2.80;;;;;;;;;;5077132;28;20451;-80
2023/10/30 06:51:47;;;;;;;9.17;2.57;;;;;;;;;;5077008;28;20475;-80
2023/10/30 06:54:14;;;;;;;11.77;2.43;;;;;;;;;;5076165;28;20453;-82
2023/10/30 06:56:40;;;;;;;6.67;3.20;;;;;;;;;;5076749;28;20459;-82
2023/10/30 06:59:09;;;;;;;14.10;2.70;;;;;;;;;;5076470;28;20439;-82
2023/10/30 07:01:42;;;;;;;9.33;2.90;;;;;;;;;;5077029;28;20441;-82
2023/10/30 07:04:08;;;;;;;8.03;2.67;;;;;;;;;;5077461;28;20459;-82
2023/10/30 07:06:35;;;;;;;7.40;2.40;;;;;;;;;;5076772;28;20451;-82
2023/10/30 07:09:01;;;;;;;11.00;3.27;;;;;;;;;;5076262;28;20447;-82
2023/10/30 07:11:28;;;;;;;7.23;2.93;;;;;;;;;;5076492;28;20439;-82
2023/10/30 07:13:54;;;;;;;12.70;3.87;;;;;;;;;;5077004;28;20490;-82
2023/10/30 07:16:21;;;;;;;13.50;3.10;;;;;;;;;;5076253;28;20977;-82
2023/10/30 07:18:48;;;;;;;9.63;3.43;;;;;;;;;;5075697;28;20935;-82
2023/10/30 07:21:15;;;;;;;6.63;2.33;;;;;;;;;;5076771;28;20443;-82
2023/10/30 07:23:41;;;;;;;11.53;3.33;;;;;;;;;;5076598;28;20968;-82
2023/10/30 07:26:08;;;;;;;9.80;3.10;;;;;;;;;;5075620;28;20442;-82
2023/10/30 07:28:34;;;;;;;8.87;3.03;;;;;;;;;;5076237;28;20470;-82
2023/10/30 07:31:00;;;;;;;4.97;2.47;;;;;;;;;;5077116;28;20446;-82
2023/10/30 07:33:27;;;;;;;9.20;2.87;;;;;;;;;;5076654;28;20991;-81
2023/10/30 07:35:55;;;;;;;13.17;2.87;;;;;;;;;;5076752;28;20447;-82
2023/10/30 07:38:22;;;;;;;14.50;3.63;;;;;;;;;;5077325;28;20470;-82
2023/10/30 07:40:48;;;;;;;8.80;2.43;;;;;;;;;;5076006;28;20450;-82
2023/10/30 07:43:14;;;;;;;10.67;3.60;;;;;;;;;;5076016;28;20473;-82
2023/10/30 07:45:41;;;;;;;9.77;2.70;;;;;;;;;;5076766;28;20442;-82
2023/10/30 07:48:08;;;;;;;12.23;2.83;;;;;;;;;;5075765;28;20463;-82
2023/10/30 07:50:36;;;;;;;10.03;2.90;;;;;;;;;;5076625;28;20868;-82
2023/10/30 07:53:04;;;;;;;7.50;2.43;;;;;;;;;;5075740;28;20454;-82
2023/10/30 07:55:30;;;;;;;8.33;2.03;;;;;;;;;;5075591;28;20517;-82
2023/10/30 07:57:57;;;;;;;8.20;2.43;;;;;;;;;;5074664;28;20470;-82
2023/10/30 08:00:23;;;;;;;10.70;3.20;;;;;;;;;;5076547;28;20442;-81
2023/10/30 08:02:51;;;;;;;5.43;2.60;;;;;;;;;;5075840;28;20471;-82
2023/10/30 08:05:17;;;;;;;7.60;2.97;;;;;;;;;;5074963;28;20843;-82
2023/10/30 08:07:44;;;;;;;14.60;3.90;;;;;;;;;;5075921;28;20837;-82
2023/10/30 08:10:12;;;;;;;12.07;2.97;;;;;;;;;;5076117;28;20442;-86
2023/10/30 08:12:39;;;;;;;5.03;2.13;;;;;;;;;;5076743;28;20475;-83
2023/10/30 08:15:06;;;;;;;7.03;2.40;;;;;;;;;;5075883;28;20429;-82
2023/10/30 08:17:32;;;;;;;8.60;3.03;;;;;;;;;;5073881;28;20463;-82
2023/10/30 08:19:58;;;;;;;7.50;4.40;;;;;;;;;;5074206;28;20443;-82
2023/10/30 08:22:25;;;;;;;11.77;3.07;;;;;;;;;;5074457;28;20452;-81
2023/10/30 08:24:52;;;;;;;6.40;3.03;;;;;;;;;;5074236;28;20463;-82
2023/10/30 08:27:19;;;;;;;11.90;3.03;;;;;;;;;;5073785;28;20503;-82
2023/10/30 08:29:46;;;;;;;15.13;3.13;;;;;;;;;;5075565;28;20413;-80
2023/10/30 08:32:13;;;;;;;7.50;2.70;;;;;;;;;;5074922;28;20467;-81
2023/10/30 08:34:39;;;;;;;9.37;2.60;;;;;;;;;;5075452;28;20482;-80
2023/10/30 08:37:05;;;;;;;10.03;2.50;;;;;;;;;;5075369;28;20450;-80
2023/10/30 08:39:32;;;;;;;8.57;3.73;;;;;;;;;;5075095;28;20920;-80
2023/10/30 08:41:58;;;;;;;8.23;2.90;;;;;;;;;;5075002;28;20471;-83
2023/10/30 08:44:26;;;;;;;12.00;2.70;;;;;;;;;;5075433;28;20454;-81
2023/10/30 08:46:54;;;;;;;8.90;3.40;;;;;;;;;;5074904;28;20470;-80
2023/10/30 08:49:22;;;;;;;6.80;2.57;;;;;;;;;;5074895;28;20432;-80
2023/10/30 08:51:48;;;;;;;12.73;3.20;;;;;;;;;;5075022;28;20822;-81
2023/10/30 08:54:15;;;;;;;11.13;2.27;;;;;;;;;;5075261;28;20536;-80
2023/10/30 08:56:42;;;;;;;6.23;3.00;;;;;;;;;;5074654;28;20486;-81
2023/10/30 08:59:09;;;;;;;10.20;4.07;;;;;;;;;;5074861;28;20421;-80
2023/10/30 09:01:37;;;;;;;17.07;3.57;;;;;;;;;;5072719;28;20811;-80
2023/10/30 09:04:03;;;;;;;9.80;3.20;;;;;;;;;;5074750;28;20455;-80
2023/10/30 09:06:32;;;;;;;6.47;2.10;;;;;;;;;;5074270;28;20782;-83
2023/10/30 09:08:58;;;;;;;7.87;3.20;;;;;;;;;;5074561;28;20451;-81
2023/10/30 09:11:25;;;;;;;8.37;2.20;;;;;;;;;;5074199;28;20774;-80
2023/10/30 09:13:51;;;;;;;6.53;2.17;;;;;;;;;;5074226;28;20989;-79
2023/10/30 09:16:17;;;;;;;7.20;2.47;;;;;;;;;;5074038;28;20788;-82
2023/10/30 09:18:46;;;;;;;12.30;3.20;;;;;;;;;;5074494;28;20409;-82
2023/10/30 09:21:13;;;;;;;10.40;2.70;;;;;;;;;;5074471;28;20543;-80
2023/10/30 09:23:42;;;;;;;8.37;2.60;;;;;;;;;;5073145;28;20508;-80
2023/10/30 09:26:10;;;;;;;8.20;2.77;;;;;;;;;;5074087;28;20414;-80
2023/10/30 09:28:36;;;;;;;12.50;2.60;;;;;;;;;;5073100;28;20506;-80
2023/10/30 09:31:02;;;;;;;11.30;2.17;;;;;;;;;;5073945;28;20808;-80
2023/10/30 09:33:29;;;;;;;11.80;2.20;;;;;;;;;;5073302;28;20471;-80
2023/10/30 09:35:57;;;;;;;10.17;2.53;;;;;;;;;;5073904;28;20413;-80
2023/10/30 09:38:24;;;;;;;20.50;4.67;;;;;;;;;;5073557;28;20475;-80
2023/10/30 09:40:55;;;;;;;7.03;2.30;;;;;;;;;;5074251;28;20443;-81
2023/10/30 09:43:21;;;;;;;9.30;2.43;;;;;;;;;;5073310;28;20471;-81
2023/10/30 09:45:50;;;;;;;9.97;2.23;;;;;;;;;;5074366;28;20442;-80
2023/10/30 09:48:17;;;;;;;9.20;2.10;;;;;;;;;;5074468;28;20813;-80
2023/10/30 09:50:43;;;;;;;6.63;3.03;;;;;;;;;;5074333;28;20409;-80
2023/10/30 09:53:12;;;;;;;9.70;3.43;;;;;;;;;;5073606;28;20478;-83
2023/10/30 09:55:38;;;;;;;8.73;2.57;;;;;;;;;;5073109;28;20446;-81
2023/10/30 09:58:05;;;;;;;4.20;2.50;;;;;;;;;;5073770;28;20454;-82
2023/10/30 10:00:32;;;;;;;9.33;2.37;;;;;;;;;;5074295;28;20782;-82
2023/10/30 10:02:58;;;;;;;4.53;1.97;;;;;;;;;;5073445;28;20841;-82
2023/10/30 10:05:25;;;;;;;11.50;2.90;;;;;;;;;;5072761;28;20458;-82
2023/10/30 10:07:51;;;;;;;6.83;3.00;;;;;;;;;;5073949;28;21001;-81
2023/10/30 10:10:19;;;;;;;12.90;2.80;;;;;;;;;;5073674;28;20435;-82
2023/10/30 10:12:49;;;;;;;10.03;3.27;;;;;;;;;;5075585;28;20438;-82
2023/10/30 10:15:15;;;;;;;13.53;3.00;;;;;;;;;;5077670;28;20861;-82
2023/10/30 10:17:44;;;;;;;13.27;2.60;;;;;;;;;;5077417;28;20442;-83
2023/10/30 10:20:11;;;;;;;11.70;3.13;;;;;;;;;;5079213;28;20449;-80
2023/10/30 10:22:38;;;;;;;7.10;2.50;;;;;;;;;;5079321;28;20466;-81
2023/10/30 10:25:07;;;;;;;6.70;2.50;;;;;;;;;;5078421;28;20946;-83
2023/10/30 10:27:35;;;;;;;13.43;2.50;;;;;;;;;;5077385;28;20466;-81
2023/10/30 10:30:01;;;;;;;12.10;2.90;;;;;;;;;;5078059;28;20418;-82
2023/10/30 10:32:28;;;;;;;9.53;2.87;;;;;;;;;;5077596;28;20465;-82
2023/10/30 10:34:57;;;;;;;9.93;2.40;;;;;;;;;;5078488;28;20487;-80
2023/10/30 10:37:23;;;;;;;9.73;2.20;;;;;;;;;;5077852;28;20441;-80
2023/10/30 10:39:51;;;;;;;9.83;3.30;;;;;;;;;;5076731;28;20417;-82
2023/10/30 10:42:19;;;;;;;8.03;3.30;;;;;;;;;;5076138;28;20470;-80
2023/10/30 10:44:48;;;;;;;9.37;3.70;;;;;;;;;;5078270;28;20834;-81
2023/10/30 10:47:14;;;;;;;5.17;2.80;;;;;;;;;;5077635;28;20466;-82
2023/10/30 10:49:41;;;;;;;10.00;3.93;;;;;;;;;;5077577;28;20964;-82
2023/10/30 10:52:10;;;;;;;10.73;4.30;;;;;;;;;;5077250;28;20553;-81
2023/10/30 10:54:41;;;;;;;8.93;4.60;;;;;;;;;;5077728;28;20471;-81
2023/10/30 10:57:09;;;;;;;8.00;3.00;;;;;;;;;;5077532;28;20471;-81
2023/10/30 10:59:36;;;;;;;10.73;4.20;;;;;;;;;;5075814;28;20448;-83
2023/10/30 11:02:12;;;;;;;6.83;3.80;;;;;;;;;;5075434;28;20481;-82
2023/10/30 11:04:38;;;;;;;6.50;3.10;;;;;;;;;;5077670;28;20455;-82
2023/10/30 11:07:07;;;;;;;10.60;3.20;;;;;;;;;;5076557;28;20983;-82
2023/10/30 11:09:40;;;;;;;11.90;3.90;;;;;;;;;;5077166;28;20446;-82
2023/10/30 11:12:12;;;;;;;7.07;3.03;;;;;;;;;;5075695;28;20474;-83
2023/10/30 11:14:43;;;;;;;8.40;3.50;;;;;;;;;;5077379;28;20486;-83
2023/10/30 11:17:12;;;;;;;5.70;2.90;;;;;;;;;;5076794;28;20808;-82
2023/10/30 11:19:38;;;;;;;7.97;3.70;;;;;;;;;;5077359;28;20439;-81
2023/10/30 11:22:05;;;;;;;12.60;4.27;;;;;;;;;;5076773;28;20478;-82
2023/10/30 11:24:38;;;;;;;14.13;3.83;;;;;;;;;;5076152;28;20462;-81
2023/10/30 11:27:23;;;;;;;12.60;3.40;;;;;;;;;;5076463;28;20479;-83
2023/10/30 11:29:53;;;;;;;8.13;2.70;;;;;;;;;;5076808;28;20443;-82
2023/10/30 11:32:21;;;;;;;8.40;2.63;;;;;;;;;;5076562;28;20470;-82
2023/10/30 11:34:48;;;;;;;15.10;3.13;;;;;;;;;;5076229;28;20479;-81
2023/10/30 11:37:15;;;;;;;7.33;2.27;;;;;;;;;;5076735;28;20558;-81
2023/10/30 11:39:42;;;;;;;10.73;2.93;;;;;;;;;;5076099;28;20454;-79
2023/10/30 11:42:24;;;;;;;12.17;2.67;;;;;;;;;;5076758;28;20844;-80
2023/10/30 11:44:50;;;;;;;6.30;2.50;;;;;;;;;;5075327;28;20520;-81
2023/10/30 11:47:20;;;;;;;8.83;2.70;;;;;;;;;;5075656;28;20466;-82
2023/10/30 11:49:47;;;;;;;9.97;2.53;;;;;;;;;;5076068;28;20821;-83
2023/10/30 11:52:14;;;;;;;6.93;2.37;;;;;;;;;;5076168;28;20471;-83
2023/10/30 11:54:40;;;;;;;10.83;3.30;;;;;;;;;;5076801;28;20561;-81
2023/10/30 11:57:07;;;;;;;10.83;3.03;;;;;;;;;;5077288;28;20474;-82
2023/10/30 11:59:33;;;;;;;14.33;3.10;;;;;;;;;;5077552;28;20443;-81
2023/10/30 12:02:01;;;;;;;8.07;2.40;;;;;;;;;;5076563;28;20473;-81
2023/10/30 12:04:28;;;;;;;14.90;2.77;;;;;;;;;;5076675;28;20469;-80
2023/10/30 12:06:55;;;;;;;12.27;3.37;;;;;;;;;;5077102;28;20466;-82
2023/10/30 12:09:22;;;;;;;7.97;3.07;;;;;;;;;;5075352;28;20443;-82
2023/10/30 12:11:49;;;;;;;10.07;2.60;;;;;;;;;;5076859;28;20441;-81
2023/10/30 12:14:19;;;;;;;14.00;2.70;;;;;;;;;;5075920;28;20487;-82
2023/10/30 12:16:49;;;;;;;7.10;3.50;;;;;;;;;;5074043;28;20541;-81
2023/10/30 12:19:15;;;;;;;13.63;2.50;;;;;;;;;;5074232;28;20813;-82
2023/10/30 12:21:43;;;;;;;9.73;2.83;;;;;;;;;;5076405;28;20458;-81
2023/10/30 12:24:10;;;;;;;16.47;3.50;;;;;;;;;;5075235;28;20459;-82
2023/10/30 12:26:41;;;;;;;5.80;2.23;;;;;;;;;;5075324;28;20537;-82
2023/10/30 12:29:07;;;;;;;8.80;2.60;;;;;;;;;;5075583;28;20841;-81
2023/10/30 12:31:35;;;;;;;11.30;2.83;;;;;;;;;;5075200;28;20836;-82
2023/10/30 12:34:09;;;;;;;8.47;2.27;;;;;;;;;;5076283;28;20471;-82
2023/10/30 12:36:35;;;;;;;8.20;2.43;;;;;;;;;;5074781;28;20455;-82
2023/10/30 12:39:14;;;;;;;7.00;2.10;;;;;;;;;;5074430;28;20446;-84
2023/10/30 12:41:40;;;;;;;7.30;2.80;;;;;;;;;;5075349;28;20463;-82
2023/10/30 12:44:07;;;;;;;13.50;3.07;;;;;;;;;;5075869;28;20455;-83
2023/10/30 12:46:33;;;;;;;9.43;2.93;;;;;;;;;;5075083;28;20458;-82
2023/10/30 12:49:00;;;;;;;8.17;2.40;;;;;;;;;;5076588;28;20447;-83
2023/10/30 12:51:26;;;;;;;14.40;3.30;;;;;;;;;;5075309;28;20435;-83
2023/10/30 12:53:53;;;;;;;4.40;2.00;;;;;;;;;;5075242;28;20497;-82
2023/10/30 12:56:21;;;;;;;5.60;2.30;;;;;;;;;;5075462;28;20502;-83
2023/10/30 12:58:48;;;;;;;10.13;3.20;;;;;;;;;;5074536;28;20443;-81
2023/10/30 13:01:15;;;;;;;9.53;2.90;;;;;;;;;;5074000;28;20967;-80
2023/10/30 13:03:41;;;;;;;8.17;1.90;;;;;;;;;;5076576;28;20537;-81
2023/10/30 13:06:08;;;;;;;10.93;3.23;;;;;;;;;;5075941;28;20936;-81
2023/10/30 13:08:34;;;;;;;8.17;2.30;;;;;;;;;;5075349;28;20466;-85
2023/10/30 13:11:01;;;;;;;10.10;2.80;;;;;;;;;;5074596;28;20454;-82
2023/10/30 13:13:29;;;;;;;6.30;2.10;;;;;;;;;;5075207;28;20497;-81
2023/10/30 13:15:55;;;;;;;10.63;2.80;;;;;;;;;;5075221;28;20479;-81
2023/10/30 13:18:21;;;;;;;5.50;2.43;;;;;;;;;;5073047;28;20470;-81
2023/10/30 13:20:48;;;;;;;7.63;1.97;;;;;;;;;;5073622;28;20446;-82
2023/10/30 13:23:21;;;;;;;8.73;2.17;;;;;;;;;;5073183;28;20473;-83
2023/10/30 13:25:47;;;;;;;7.20;3.57;;;;;;;;;;5073448;28;20533;-82
2023/10/30 13:28:17;;;;;;;3.50;1.77;;;;;;;;;;5074165;28;20471;-83
2023/10/30 13:30:44;;;;;;;6.40;2.10;;;;;;;;;;5075322;28;20455;-82
2023/10/30 13:33:11;;;;;;;10.37;2.70;;;;;;;;;;5074068;28;20462;-82
2023/10/30 13:35:37;;;;;;;9.53;2.60;;;;;;;;;;5075150;28;20491;-83
2023/10/30 13:38:04;;;;;;;15.70;2.83;;;;;;;;;;5074212;28;20467;-83
2023/10/30 13:40:30;;;;;;;6.43;2.03;;;;;;;;;;5074485;28;20435;-83
2023/10/30 13:43:00;;;;;;;7.03;2.60;;;;;;;;;;5073875;28;20984;-82
2023/10/30 13:45:26;;;;;;;6.70;2.60;;;;;;;;;;5074446;28;20495;-83
2023/10/30 13:47:54;;;;;;;9.07;2.20;;;;;;;;;;5073410;28;20471;-82
2023/10/30 13:50:22;;;;;;;7.27;2.60;;;;;;;;;;5074102;28;21036;-82
2023/10/30 13:52:49;;;;;;;8.60;2.63;;;;;;;;;;5071545;28;20470;-82
2023/10/30 13:55:17;;;;;;;5.50;2.93;;;;;;;;;;5073998;28;20486;-82
2023/10/30 13:57:44;;;;;;;9.53;2.60;;;;;;;;;;5074047;28;20543;-83
2023/10/30 14:00:11;;;;;;;5.17;2.40;;;;;;;;;;5074003;28;20439;-82
2023/10/30 14:02:37;;;;;;;8.30;3.23;;;;;;;;;;5072674;28;20466;-83
2023/10/30 14:05:05;;;;;;;7.90;2.80;;;;;;;;;;5072484;28;21015;-82
2023/10/30 14:07:32;;;;;;;11.93;3.63;;;;;;;;;;5073732;28;20467;-80
2023/10/30 14:09:58;;;;;;;9.97;2.93;;;;;;;;;;5073599;28;20435;-82
2023/10/30 14:12:27;;;;;;;6.17;2.50;;;;;;;;;;5072075;28;20520;-82
2023/10/30 14:14:53;;;;;;;10.07;3.37;;;;;;;;;;5072440;28;20501;-82
2023/10/30 14:17:20;;;;;;;14.80;3.73;;;;;;;;;;5074072;28;20974;-82
2023/10/30 14:19:46;;;;;;;10.13;3.17;;;;;;;;;;5073790;28;20473;-81
2023/10/30 14:22:14;;;;;;;8.23;2.80;;;;;;;;;;5072951;28;20550;-83
2023/10/30 14:24:40;;;;;;;13.80;3.50;;;;;;;;;;5073489;28;20466;-81
2023/10/30 14:27:07;;;;;;;4.10;2.37;;;;;;;;;;5072485;28;20478;-80
2023/10/30 14:29:33;;;;;;;7.27;3.23;;;;;;;;;;5073759;28;20439;-83
2023/10/30 14:32:00;;;;;;;13.07;3.30;;;;;;;;;;5073401;28;20474;-82
2023/10/30 14:34:28;;;;;;;9.37;3.90;;;;;;;;;;5073034;28;20478;-82
2023/10/30 14:36:54;;;;;;;7.67;2.50;;;;;;;;;;5074004;28;20513;-84